KGYR/GYR METAR and TAF weather

Enter ICAO airport designator
Station Type Date Time Source
KGYR METAR 2022/11/26 03:47 UTC NOAA

KGYR 260347Z 25006KT 10SM SKC 13/M05 A3017 RMK LAST


Station Type Date Time Source
KGYR Decoded METAR 2022/11/26 03:47 UTC NOAA

Goodyear Municipal, AZ, United States (KGYR) 33-25N 112-23W
Nov 25, 2022 - 10:47 PM EST / 2022.11.26 0347 UTC
Wind: from the WSW (250 degrees) at 7 MPH (6 KT):0
Visibility: 10 mile(s):0
Sky conditions: clear
Temperature: 55 F (13 C)
Dew Point: 23 F (-5 C)
Relative Humidity: 28%
Pressure (altimeter): 30.17 in. Hg (1021 hPa)
ob: KGYR 260347Z 25006KT 10SM SKC 13/M05 A3017 RMK LAST
cycle: 4

Station Type Date Time Source
KGYR TAF UTC NOAA

Error!

Example: see airport list